createdAt,value
2023-04-16T00:00:16.425Z,992.85
2023-04-16T00:01:16.424Z,992.86
2023-04-16T00:02:16.468Z,992.85
2023-04-16T00:03:16.701Z,992.85
2023-04-16T00:04:16.489Z,992.81
2023-04-16T00:05:16.392Z,992.86
2023-04-16T00:06:16.381Z,992.88
2023-04-16T00:07:16.388Z,992.86
2023-04-16T00:08:16.377Z,992.88
2023-04-16T00:09:16.389Z,992.88
2023-04-16T00:10:16.384Z,992.88
2023-04-16T00:11:16.356Z,992.90
2023-04-16T00:12:16.359Z,992.89
2023-04-16T00:13:16.362Z,992.89
2023-04-16T00:14:16.347Z,992.90
2023-04-16T00:15:16.344Z,992.92
2023-04-16T00:16:16.358Z,992.92
2023-04-16T00:17:16.308Z,992.92
2023-04-16T00:18:16.307Z,992.83
2023-04-16T00:19:16.292Z,992.84
2023-04-16T00:20:16.296Z,992.84
2023-04-16T00:21:16.294Z,992.82
2023-04-16T00:22:16.279Z,992.89
2023-04-16T00:23:16.273Z,992.87
2023-04-16T00:24:16.273Z,992.85
2023-04-16T00:25:16.254Z,992.85
2023-04-16T00:26:16.265Z,992.86
2023-04-16T00:27:16.253Z,992.83
2023-04-16T00:28:16.239Z,992.81
2023-04-16T00:29:16.251Z,992.84
2023-04-16T00:30:16.232Z,992.84
2023-04-16T00:31:16.268Z,992.86
2023-04-16T00:32:16.218Z,992.89
2023-04-16T00:33:16.426Z,992.84
2023-04-16T00:34:16.200Z,992.84
2023-04-16T00:35:16.207Z,992.84
2023-04-16T00:36:16.184Z,992.86
2023-04-16T00:37:16.174Z,992.91
2023-04-16T00:38:16.182Z,992.91
2023-04-16T00:39:16.156Z,992.92
2023-04-16T00:40:16.175Z,992.93
2023-04-16T00:41:16.152Z,992.90
2023-04-16T00:42:16.166Z,992.91
2023-04-16T00:43:16.138Z,992.92
2023-04-16T00:44:16.131Z,992.98
2023-04-16T00:45:16.146Z,992.92
2023-04-16T00:46:16.125Z,992.99
2023-04-16T00:47:16.168Z,992.88
2023-04-16T00:48:16.100Z,992.92
2023-04-16T00:49:16.093Z,992.90
2023-04-16T00:50:16.111Z,992.92
2023-04-16T00:51:16.089Z,992.90
2023-04-16T00:52:16.075Z,992.93
2023-04-16T00:53:16.089Z,992.95
2023-04-16T00:54:16.106Z,992.91
2023-04-16T00:55:16.082Z,992.88
2023-04-16T00:56:17.562Z,992.87
2023-04-16T00:57:16.050Z,992.94
2023-04-16T00:58:16.051Z,993.00
2023-04-16T00:59:16.031Z,992.89
2023-04-16T01:00:16.031Z,992.87
2023-04-16T01:01:16.041Z,992.88
2023-04-16T01:02:16.058Z,992.90
2023-04-16T01:03:16.123Z,992.89
2023-04-16T01:04:16.151Z,992.90
2023-04-16T01:05:16.005Z,992.92
2023-04-16T01:06:16.013Z,992.91
2023-04-16T01:07:15.992Z,992.98
2023-04-16T01:08:15.991Z,992.94
2023-04-16T01:09:15.980Z,992.95
2023-04-16T01:10:15.966Z,993.03
2023-04-16T01:11:15.951Z,993.01
2023-04-16T01:12:16.948Z,993.02
2023-04-16T01:13:15.952Z,993.05
2023-04-16T01:14:15.946Z,993.05
2023-04-16T01:15:15.938Z,993.02
2023-04-16T01:16:15.979Z,993.07
2023-04-16T01:17:15.924Z,993.04
2023-04-16T01:18:15.913Z,993.02
2023-04-16T01:19:15.897Z,993.09
2023-04-16T01:20:15.905Z,993.05
2023-04-16T01:21:15.883Z,993.03
2023-04-16T01:22:15.894Z,993.07
2023-04-16T01:23:15.874Z,993.10
2023-04-16T01:24:15.919Z,993.08
2023-04-16T01:25:15.950Z,993.10
2023-04-16T01:26:15.861Z,993.09
2023-04-16T01:27:15.850Z,993.12
2023-04-16T01:28:15.845Z,993.14
2023-04-16T01:29:15.879Z,993.19
2023-04-16T01:30:15.832Z,993.15
2023-04-16T01:31:15.864Z,993.15
2023-04-16T01:32:15.815Z,993.22
2023-04-16T01:33:15.816Z,993.23
2023-04-16T01:34:15.835Z,993.19
2023-04-16T01:35:15.802Z,993.18
2023-04-16T01:36:15.793Z,993.10
2023-04-16T01:37:15.790Z,993.05
2023-04-16T01:38:15.793Z,993.12
2023-04-16T01:39:15.801Z,993.15
2023-04-16T01:40:15.775Z,993.14
2023-04-16T01:41:15.777Z,993.19
2023-04-16T01:42:15.795Z,993.17
2023-04-16T01:43:15.775Z,993.12
2023-04-16T01:44:15.737Z,993.20
2023-04-16T01:45:15.752Z,993.17
2023-04-16T01:46:15.770Z,993.22
2023-04-16T01:47:15.802Z,993.15
2023-04-16T01:48:15.709Z,993.14
2023-04-16T01:49:15.699Z,993.09
2023-04-16T01:50:15.721Z,993.14
2023-04-16T01:51:15.699Z,993.14
2023-04-16T01:52:15.680Z,993.15
2023-04-16T01:53:15.677Z,993.19
2023-04-16T01:54:15.688Z,993.15
2023-04-16T01:55:15.664Z,993.17
2023-04-16T01:56:15.669Z,993.11
2023-04-16T01:57:15.646Z,993.13
2023-04-16T01:58:15.651Z,993.12
2023-04-16T01:59:15.631Z,993.15
2023-04-16T02:00:15.630Z,993.12
2023-04-16T02:01:15.652Z,993.15
2023-04-16T02:02:15.644Z,993.12
2023-04-16T02:03:15.744Z,993.19
2023-04-16T02:04:16.647Z,993.14
2023-04-16T02:05:15.599Z,993.14
2023-04-16T02:06:15.599Z,993.12
2023-04-16T02:07:15.607Z,993.14
2023-04-16T02:08:15.576Z,993.16
2023-04-16T02:09:15.568Z,993.15
2023-04-16T02:10:15.561Z,993.09
2023-04-16T02:11:15.551Z,993.10
2023-04-16T02:12:15.548Z,993.12
2023-04-16T02:13:15.534Z,993.14
2023-04-16T02:14:15.524Z,993.12
2023-04-16T02:15:15.512Z,993.16
2023-04-16T02:16:15.541Z,993.21
2023-04-16T02:17:15.516Z,993.21
2023-04-16T02:18:15.517Z,993.16
2023-04-16T02:19:15.502Z,993.19
2023-04-16T02:20:15.484Z,993.15
2023-04-16T02:21:15.499Z,993.13
2023-04-16T02:22:15.472Z,993.15
2023-04-16T02:23:15.486Z,993.15
2023-04-16T02:24:15.478Z,993.21
2023-04-16T02:25:15.466Z,993.20
2023-04-16T02:26:15.474Z,993.20
2023-04-16T02:27:15.458Z,993.22
2023-04-16T02:28:15.438Z,993.23
2023-04-16T02:29:15.440Z,993.14
2023-04-16T02:30:15.425Z,993.14
2023-04-16T02:31:15.435Z,993.25
2023-04-16T02:32:15.443Z,993.20
2023-04-16T02:33:15.408Z,993.18
2023-04-16T02:34:15.430Z,993.23
2023-04-16T02:35:15.388Z,993.23
2023-04-16T02:36:15.385Z,993.23
2023-04-16T02:37:15.412Z,993.25
2023-04-16T02:38:15.403Z,993.22
2023-04-16T02:39:15.369Z,993.25
2023-04-16T02:40:15.353Z,993.23
2023-04-16T02:41:15.341Z,993.25
2023-04-16T02:42:15.328Z,993.21
2023-04-16T02:43:15.349Z,993.25
2023-04-16T02:44:15.331Z,993.24
2023-04-16T02:45:15.316Z,993.21
2023-04-16T02:46:15.326Z,993.21
2023-04-16T02:47:15.317Z,993.23
2023-04-16T02:48:15.328Z,993.23
2023-04-16T02:49:15.292Z,993.16
2023-04-16T02:50:15.285Z,993.19
2023-04-16T02:51:15.280Z,993.15
2023-04-16T02:52:15.738Z,993.19
2023-04-16T02:53:16.289Z,993.16
2023-04-16T02:54:15.269Z,993.20
2023-04-16T02:55:15.284Z,993.19
2023-04-16T02:56:15.252Z,993.21
2023-04-16T02:57:15.242Z,993.16
2023-04-16T02:58:15.241Z,993.18
2023-04-16T02:59:15.239Z,993.17
2023-04-16T03:00:15.257Z,993.22
2023-04-16T03:01:15.267Z,993.15
2023-04-16T03:02:15.319Z,993.15
2023-04-16T03:03:15.252Z,993.19
2023-04-16T03:04:15.245Z,993.16
2023-04-16T03:05:15.189Z,993.20
2023-04-16T03:06:15.207Z,993.24
2023-04-16T03:07:15.190Z,993.24
2023-04-16T03:08:15.180Z,993.28
2023-04-16T03:09:15.186Z,993.23
2023-04-16T03:10:15.166Z,993.20
2023-04-16T03:11:15.161Z,993.18
2023-04-16T03:12:15.169Z,993.25
2023-04-16T03:13:15.149Z,993.25
2023-04-16T03:14:15.138Z,993.28
2023-04-16T03:15:15.131Z,993.21
2023-04-16T03:16:15.142Z,993.26
2023-04-16T03:17:15.114Z,993.27
2023-04-16T03:18:15.217Z,993.30
2023-04-16T03:19:15.098Z,993.30
2023-04-16T03:20:15.095Z,993.24
2023-04-16T03:21:15.093Z,993.29
2023-04-16T03:22:15.086Z,993.28
2023-04-16T03:23:15.107Z,993.28
2023-04-16T03:24:15.075Z,993.29
2023-04-16T03:25:15.070Z,993.32
2023-04-16T03:26:15.058Z,993.27
2023-04-16T03:27:15.049Z,993.39
2023-04-16T03:28:15.190Z,993.32
2023-04-16T03:29:15.038Z,993.34
2023-04-16T03:30:15.035Z,993.25
2023-04-16T03:31:15.064Z,993.26
2023-04-16T03:32:15.022Z,993.32
2023-04-16T03:33:15.020Z,993.31
2023-04-16T03:34:15.122Z,993.35
2023-04-16T03:35:15.011Z,993.31
2023-04-16T03:36:14.994Z,993.28
2023-04-16T03:37:14.995Z,993.28
2023-04-16T03:38:14.982Z,993.31
2023-04-16T03:39:14.970Z,993.31
2023-04-16T03:40:14.956Z,993.28
2023-04-16T03:41:14.955Z,993.39
2023-04-16T03:42:14.956Z,993.33
2023-04-16T03:43:14.942Z,993.32
2023-04-16T03:44:14.946Z,993.36
2023-04-16T03:45:14.931Z,993.41
2023-04-16T03:46:14.969Z,993.40
2023-04-16T03:47:14.911Z,993.40
2023-04-16T03:48:14.924Z,993.44
2023-04-16T03:49:14.894Z,993.36
2023-04-16T03:50:14.925Z,993.43
2023-04-16T03:51:14.890Z,993.40
2023-04-16T03:52:16.234Z,993.47
2023-04-16T03:53:17.117Z,993.39
2023-04-16T03:54:15.736Z,993.42
2023-04-16T03:55:15.741Z,993.42
2023-04-16T03:56:15.699Z,993.40
2023-04-16T03:57:15.869Z,993.36
2023-04-16T03:58:16.071Z,993.38
2023-04-16T03:59:16.847Z,993.38
2023-04-16T04:00:17.339Z,993.36
2023-04-16T04:01:16.770Z,993.35
2023-04-16T04:02:16.820Z,993.42
2023-04-16T04:03:16.280Z,993.40
2023-04-16T04:04:16.561Z,993.39
2023-04-16T04:05:16.193Z,993.46
2023-04-16T04:06:16.767Z,993.40
2023-04-16T04:07:16.567Z,993.40
2023-04-16T04:08:15.958Z,993.41
2023-04-16T04:09:16.781Z,993.45
2023-04-16T04:10:15.671Z,993.45
2023-04-16T04:11:16.060Z,993.43
2023-04-16T04:12:15.805Z,993.45
2023-04-16T04:13:17.219Z,993.46
2023-04-16T04:14:15.996Z,993.47
2023-04-16T04:15:16.242Z,993.41
2023-04-16T04:16:15.567Z,993.41
2023-04-16T04:17:15.817Z,993.48
2023-04-16T04:18:16.133Z,993.46
2023-04-16T04:19:15.522Z,993.52
2023-04-16T04:20:15.553Z,993.49
2023-04-16T04:21:15.832Z,993.48
2023-04-16T04:22:15.496Z,993.51
2023-04-16T04:23:16.256Z,993.51
2023-04-16T04:24:16.474Z,993.48
2023-04-16T04:25:15.840Z,993.58
2023-04-16T04:26:15.972Z,993.53
2023-04-16T04:27:17.550Z,993.55
2023-04-16T04:28:16.780Z,993.55
2023-04-16T04:29:15.419Z,993.50
2023-04-16T04:30:16.199Z,993.52
2023-04-16T04:31:15.755Z,993.53
2023-04-16T04:32:15.680Z,993.59
2023-04-16T04:33:16.664Z,993.66
2023-04-16T04:34:15.603Z,993.62
2023-04-16T04:35:16.501Z,993.60
2023-04-16T04:36:16.983Z,993.64
2023-04-16T04:37:15.461Z,993.59
2023-04-16T04:38:16.209Z,993.64
2023-04-16T04:39:17.978Z,993.61
2023-04-16T04:40:16.875Z,993.67
2023-04-16T04:41:16.474Z,993.66
2023-04-16T04:42:18.716Z,993.60
2023-04-16T04:43:17.614Z,993.61
2023-04-16T04:44:16.735Z,993.71
2023-04-16T04:45:17.727Z,993.65
2023-04-16T04:46:20.117Z,993.66
2023-04-16T04:47:17.491Z,993.69
2023-04-16T04:48:19.694Z,993.73
2023-04-16T04:49:16.260Z,993.75
2023-04-16T04:50:15.496Z,993.76
2023-04-16T04:51:15.215Z,993.68
2023-04-16T04:52:15.303Z,993.71
2023-04-16T04:53:15.818Z,993.71
2023-04-16T04:54:18.399Z,993.71
2023-04-16T04:55:16.703Z,993.70
2023-04-16T04:56:15.236Z,993.72
2023-04-16T04:57:16.165Z,993.75
2023-04-16T04:58:15.661Z,993.74
2023-04-16T04:59:15.223Z,993.66
2023-04-16T05:00:15.817Z,993.71
2023-04-16T05:01:16.394Z,993.74
2023-04-16T05:02:16.238Z,993.68
2023-04-16T05:03:15.810Z,993.70
2023-04-16T05:04:15.103Z,993.72
2023-04-16T05:05:15.981Z,993.74
2023-04-16T05:06:15.670Z,993.72
2023-04-16T05:07:15.095Z,993.78
2023-04-16T05:08:15.407Z,993.75
2023-04-16T05:09:15.117Z,993.79
2023-04-16T05:10:15.274Z,993.77
2023-04-16T05:11:15.074Z,993.82
2023-04-16T05:12:15.035Z,993.81
2023-04-16T05:13:15.172Z,993.84
2023-04-16T05:14:15.151Z,993.82
2023-04-16T05:15:15.088Z,993.81
2023-04-16T05:16:15.844Z,993.88
2023-04-16T05:17:15.112Z,993.91
2023-04-16T05:18:15.257Z,993.91
2023-04-16T05:19:15.184Z,993.93
2023-04-16T05:20:16.124Z,993.89
2023-04-16T05:21:15.000Z,993.94
2023-04-16T05:22:14.993Z,994.02
2023-04-16T05:23:15.156Z,994.01
2023-04-16T05:24:15.260Z,994.02
2023-04-16T05:25:17.936Z,994.07
2023-04-16T05:26:15.804Z,994.15
2023-04-16T05:27:16.306Z,994.17
2023-04-16T05:28:16.257Z,994.10
2023-04-16T05:29:15.811Z,994.11
2023-04-16T05:30:15.203Z,994.13
2023-04-16T05:31:15.840Z,994.18
2023-04-16T05:32:17.047Z,994.28
2023-04-16T05:33:14.934Z,994.21
2023-04-16T05:34:15.074Z,994.21
2023-04-16T05:35:17.294Z,994.26
2023-04-16T05:36:16.238Z,994.27
2023-04-16T05:37:16.267Z,994.29
2023-04-16T05:38:15.719Z,994.28
2023-04-16T05:39:16.868Z,994.29
2023-04-16T05:40:15.674Z,994.30
2023-04-16T05:41:15.319Z,994.30
2023-04-16T05:42:15.944Z,994.32
2023-04-16T05:43:15.137Z,994.34
2023-04-16T05:44:15.496Z,994.33
2023-04-16T05:45:15.864Z,994.35
2023-04-16T05:46:15.144Z,994.34
2023-04-16T05:47:14.948Z,994.38
2023-04-16T05:48:14.927Z,994.36
2023-04-16T05:49:15.424Z,994.32
2023-04-16T05:50:15.381Z,994.34
2023-04-16T05:51:15.691Z,994.35
2023-04-16T05:52:14.984Z,994.38
2023-04-16T05:53:14.939Z,994.32
2023-04-16T05:54:14.719Z,994.38
2023-04-16T05:55:14.909Z,994.44
2023-04-16T05:56:15.722Z,994.39
2023-04-16T05:57:15.066Z,994.43
2023-04-16T05:58:15.023Z,994.46
2023-04-16T05:59:14.781Z,994.45
2023-04-16T06:00:15.955Z,994.48
2023-04-16T06:01:15.140Z,994.46
2023-04-16T06:02:15.222Z,994.56
2023-04-16T06:03:17.369Z,994.50
2023-04-16T06:04:15.364Z,994.56
2023-04-16T06:05:18.062Z,994.60
2023-04-16T06:06:15.561Z,994.57
2023-04-16T06:07:14.685Z,994.60
2023-04-16T06:08:14.984Z,994.59
2023-04-16T06:09:16.374Z,994.59
2023-04-16T06:10:14.685Z,994.62
2023-04-16T06:11:14.760Z,994.60
2023-04-16T06:12:14.715Z,994.66
2023-04-16T06:13:14.814Z,994.71
2023-04-16T06:14:15.129Z,994.64
2023-04-16T06:15:14.930Z,994.68
2023-04-16T06:16:15.721Z,994.66
2023-04-16T06:17:16.883Z,994.77
2023-04-16T06:18:17.708Z,994.71
2023-04-16T06:19:14.972Z,994.71
2023-04-16T06:20:15.684Z,994.73
2023-04-16T06:21:14.449Z,994.77
2023-04-16T06:22:15.166Z,994.74
2023-04-16T06:23:15.218Z,994.82
2023-04-16T06:24:15.290Z,994.77
2023-04-16T06:25:16.824Z,994.76
2023-04-16T06:26:15.281Z,994.84
2023-04-16T06:27:14.800Z,994.83
2023-04-16T06:28:14.528Z,994.79
2023-04-16T06:29:15.958Z,994.79
2023-04-16T06:30:14.723Z,994.78
2023-04-16T06:31:15.140Z,994.91
2023-04-16T06:32:14.755Z,994.78
2023-04-16T06:33:14.733Z,994.86
2023-04-16T06:34:14.957Z,994.80
2023-04-16T06:35:16.180Z,994.83
2023-04-16T06:36:18.957Z,994.86
2023-04-16T06:37:15.469Z,994.84
2023-04-16T06:38:14.938Z,994.91
2023-04-16T06:39:14.733Z,994.87
2023-04-16T06:40:15.428Z,994.88
2023-04-16T06:41:15.257Z,994.90
2023-04-16T06:42:15.479Z,994.91
2023-04-16T06:43:16.193Z,994.89
2023-04-16T06:44:15.652Z,994.90
2023-04-16T06:45:14.677Z,994.96
2023-04-16T06:46:15.172Z,994.95
2023-04-16T06:47:14.790Z,995.04
2023-04-16T06:48:14.690Z,994.93
2023-04-16T06:49:14.539Z,994.97
2023-04-16T06:50:14.699Z,994.95
2023-04-16T06:51:14.852Z,994.96
2023-04-16T06:52:14.610Z,995.01
2023-04-16T06:53:14.677Z,995.01
2023-04-16T06:54:14.874Z,995.04
2023-04-16T06:55:15.070Z,994.95
2023-04-16T06:56:13.697Z,994.97
2023-04-16T06:57:14.663Z,995.02
2023-04-16T06:58:13.663Z,995.01
2023-04-16T06:59:13.649Z,995.07
2023-04-16T07:00:13.640Z,995.08
2023-04-16T07:01:13.647Z,994.99
2023-04-16T07:02:13.719Z,995.02
2023-04-16T07:03:13.793Z,995.01
2023-04-16T07:04:13.707Z,995.05
2023-04-16T07:05:13.622Z,995.03
2023-04-16T07:06:13.620Z,995.06
2023-04-16T07:07:13.614Z,995.05
2023-04-16T07:08:13.603Z,995.07
2023-04-16T07:09:13.601Z,995.09
2023-04-16T07:10:13.598Z,995.09
2023-04-16T07:11:13.579Z,995.12
2023-04-16T07:12:13.570Z,995.11
2023-04-16T07:13:13.602Z,995.10
2023-04-16T07:14:13.573Z,995.10
2023-04-16T07:15:13.638Z,995.13
2023-04-16T07:16:13.574Z,995.18
2023-04-16T07:17:13.531Z,995.15
2023-04-16T07:18:13.584Z,995.18
2023-04-16T07:19:13.521Z,995.17
2023-04-16T07:20:13.523Z,995.22
2023-04-16T07:21:13.516Z,995.19
2023-04-16T07:22:13.507Z,995.18
2023-04-16T07:23:13.507Z,995.23
2023-04-16T07:24:13.497Z,995.21
2023-04-16T07:25:13.498Z,995.26
2023-04-16T07:26:13.514Z,995.24
2023-04-16T07:27:13.502Z,995.25
2023-04-16T07:28:13.499Z,995.33
2023-04-16T07:29:13.495Z,995.25
2023-04-16T07:30:13.482Z,995.32
2023-04-16T07:31:13.463Z,995.36
2023-04-16T07:32:15.324Z,995.39
2023-04-16T07:33:14.432Z,995.41
2023-04-16T07:34:13.492Z,995.37
2023-04-16T07:35:13.453Z,995.40
2023-04-16T07:36:13.428Z,995.43
2023-04-16T07:37:13.414Z,995.38
2023-04-16T07:38:13.423Z,995.50
2023-04-16T07:39:13.397Z,995.46
2023-04-16T07:40:13.426Z,995.43
2023-04-16T07:41:13.407Z,995.45
2023-04-16T07:42:13.410Z,995.49
2023-04-16T07:43:13.367Z,995.47
2023-04-16T07:44:13.378Z,995.48
2023-04-16T07:45:13.355Z,995.48
2023-04-16T07:46:13.385Z,995.52
2023-04-16T07:47:13.374Z,995.52
2023-04-16T07:48:13.344Z,995.49
2023-04-16T07:49:13.355Z,995.53
2023-04-16T07:50:13.342Z,995.50
2023-04-16T07:51:13.318Z,995.50
2023-04-16T07:52:13.303Z,995.58
2023-04-16T07:53:13.321Z,995.55
2023-04-16T07:54:13.291Z,995.48
2023-04-16T07:55:13.304Z,995.49
2023-04-16T07:56:13.284Z,995.50
2023-04-16T07:57:13.281Z,995.64
2023-04-16T07:58:13.274Z,995.65
2023-04-16T08:00:14.298Z,995.63
2023-04-16T08:01:13.257Z,995.65
2023-04-16T08:02:13.332Z,995.64
2023-04-16T08:03:13.444Z,995.63
2023-04-16T08:04:13.310Z,995.69
2023-04-16T08:05:13.401Z,995.67
2023-04-16T08:06:13.236Z,995.68
2023-04-16T08:07:13.217Z,995.70
2023-04-16T08:08:13.207Z,995.79
2023-04-16T08:09:13.200Z,995.74
2023-04-16T08:10:13.191Z,995.79
2023-04-16T08:11:13.193Z,995.73
2023-04-16T08:12:13.177Z,995.81
2023-04-16T08:13:13.168Z,995.81
2023-04-16T08:14:13.160Z,995.83
2023-04-16T08:15:13.161Z,995.83
2023-04-16T08:16:13.171Z,995.86
2023-04-16T08:17:13.181Z,995.89
2023-04-16T08:18:13.156Z,995.86
2023-04-16T08:19:13.341Z,995.92
2023-04-16T08:20:16.375Z,995.91
2023-04-16T08:21:15.121Z,995.91
2023-04-16T08:22:13.127Z,995.94
2023-04-16T08:23:13.146Z,995.94
2023-04-16T08:24:13.100Z,995.97
2023-04-16T08:25:13.103Z,996.00
2023-04-16T08:26:13.100Z,996.02
2023-04-16T08:27:19.096Z,995.99
2023-04-16T08:28:15.085Z,996.02
2023-04-16T08:29:13.285Z,996.05
2023-04-16T08:30:13.060Z,996.10
2023-04-16T08:31:13.100Z,996.10
2023-04-16T08:32:13.038Z,996.04
2023-04-16T08:33:13.099Z,996.12
2023-04-16T08:34:13.039Z,996.20
2023-04-16T08:35:13.032Z,996.18
2023-04-16T08:36:13.027Z,996.17
2023-04-16T08:37:13.019Z,996.21
2023-04-16T08:38:13.012Z,996.13
2023-04-16T08:39:13.185Z,996.20
2023-04-16T08:40:13.015Z,996.25
2023-04-16T08:41:12.993Z,996.17
2023-04-16T08:42:12.967Z,996.20
2023-04-16T08:43:12.961Z,996.28
2023-04-16T08:44:12.963Z,996.31
2023-04-16T08:45:12.952Z,996.22
2023-04-16T08:46:13.111Z,996.35
2023-04-16T08:47:12.938Z,996.41
2023-04-16T08:48:12.924Z,996.36
2023-04-16T08:49:12.938Z,996.37
2023-04-16T08:50:13.941Z,996.43
2023-04-16T08:51:12.907Z,996.39
2023-04-16T08:52:12.910Z,996.45
2023-04-16T08:53:12.903Z,996.48
2023-04-16T08:54:12.895Z,996.46
2023-04-16T08:55:12.894Z,996.48
2023-04-16T08:56:12.895Z,996.52
2023-04-16T08:57:12.882Z,996.54
2023-04-16T08:58:12.860Z,996.48
2023-04-16T08:59:12.866Z,996.59
2023-04-16T09:00:12.855Z,996.47
2023-04-16T09:01:12.864Z,996.53
2023-04-16T09:02:12.922Z,996.51
2023-04-16T09:03:12.894Z,996.48
2023-04-16T09:04:12.865Z,996.52
2023-04-16T09:05:13.822Z,996.53
2023-04-16T09:06:12.825Z,996.59
2023-04-16T09:07:12.807Z,996.56
2023-04-16T09:08:12.806Z,996.49
2023-04-16T09:09:12.786Z,996.56
2023-04-16T09:10:12.790Z,996.52
2023-04-16T09:11:12.785Z,996.53
2023-04-16T09:12:12.808Z,996.58
2023-04-16T09:13:12.773Z,996.53
2023-04-16T09:14:12.767Z,996.57
2023-04-16T09:15:12.756Z,996.57
2023-04-16T09:16:12.810Z,996.57
2023-04-16T09:17:12.747Z,996.56
2023-04-16T09:18:12.739Z,996.56
2023-04-16T09:19:12.716Z,996.53
2023-04-16T09:20:12.721Z,996.59
2023-04-16T09:21:12.770Z,996.58
2023-04-16T09:22:12.734Z,996.58
2023-04-16T09:23:12.700Z,996.62
2023-04-16T09:24:12.692Z,996.65
2023-04-16T09:25:12.695Z,996.69
2023-04-16T09:26:12.696Z,996.62
2023-04-16T09:27:12.696Z,996.68
2023-04-16T09:28:13.643Z,996.68
2023-04-16T09:29:12.661Z,996.73
2023-04-16T09:30:12.654Z,996.72
2023-04-16T09:31:12.645Z,996.69
2023-04-16T09:32:12.794Z,996.74
2023-04-16T09:33:12.655Z,996.75
2023-04-16T09:34:12.630Z,996.78
2023-04-16T09:35:13.613Z,996.77
2023-04-16T09:36:12.629Z,996.80
2023-04-16T09:37:12.617Z,996.77
2023-04-16T09:38:12.641Z,996.77
2023-04-16T09:39:12.586Z,996.87
2023-04-16T09:40:12.586Z,996.84
2023-04-16T09:41:12.577Z,996.84
2023-04-16T09:42:12.566Z,996.89
2023-04-16T09:43:12.585Z,996.88
2023-04-16T09:44:12.566Z,996.89
2023-04-16T09:45:12.553Z,996.88
2023-04-16T09:46:12.577Z,996.89
2023-04-16T09:47:12.539Z,996.89
2023-04-16T09:48:12.526Z,996.82
2023-04-16T09:49:12.735Z,996.91
2023-04-16T09:50:13.279Z,996.85
2023-04-16T09:51:13.514Z,996.86
2023-04-16T09:52:12.505Z,996.92
2023-04-16T09:53:12.502Z,996.90
2023-04-16T09:54:12.507Z,996.86
2023-04-16T09:55:12.490Z,996.91
2023-04-16T09:56:12.494Z,996.92
2023-04-16T09:57:12.479Z,996.90
2023-04-16T09:58:12.466Z,996.97
2023-04-16T09:59:12.466Z,996.96
2023-04-16T10:00:12.457Z,996.99
2023-04-16T10:01:12.487Z,996.97
2023-04-16T10:02:15.307Z,996.94
2023-04-16T10:03:12.522Z,996.97
2023-04-16T10:04:12.468Z,996.99
2023-04-16T10:05:12.467Z,996.94
2023-04-16T10:06:12.415Z,996.96
2023-04-16T10:07:12.412Z,997.02
2023-04-16T10:08:12.404Z,997.01
2023-04-16T10:09:12.641Z,997.03
2023-04-16T10:10:12.423Z,997.01
2023-04-16T10:11:12.382Z,997.03
2023-04-16T10:12:12.376Z,996.99
2023-04-16T10:13:12.374Z,997.05
2023-04-16T10:14:12.369Z,997.05
2023-04-16T10:15:12.365Z,997.06
2023-04-16T10:16:12.382Z,996.97
2023-04-16T10:17:12.404Z,997.08
2023-04-16T10:18:12.379Z,997.03
2023-04-16T10:19:12.523Z,997.09
2023-04-16T10:20:12.324Z,997.05
2023-04-16T10:21:12.342Z,997.08
2023-04-16T10:22:12.308Z,997.09
2023-04-16T10:23:12.308Z,997.10
2023-04-16T10:24:12.308Z,997.13
2023-04-16T10:25:12.301Z,997.16
2023-04-16T10:26:12.326Z,997.09
2023-04-16T10:27:12.298Z,997.18
2023-04-16T10:28:12.276Z,997.12
2023-04-16T10:29:12.437Z,997.16
2023-04-16T10:30:12.259Z,997.15
2023-04-16T10:31:12.322Z,997.11
2023-04-16T10:32:12.251Z,997.07
2023-04-16T10:33:12.231Z,997.07
2023-04-16T10:34:12.240Z,997.14
2023-04-16T10:35:12.229Z,997.21
2023-04-16T10:36:12.226Z,997.15
2023-04-16T10:37:12.234Z,997.20
2023-04-16T10:38:12.205Z,997.21
2023-04-16T10:39:13.592Z,997.17
2023-04-16T10:40:12.193Z,997.12
2023-04-16T10:41:12.177Z,997.18
2023-04-16T10:42:12.181Z,997.19
2023-04-16T10:43:12.181Z,997.14
2023-04-16T10:44:12.175Z,997.15
2023-04-16T10:45:12.154Z,997.17
2023-04-16T10:46:12.178Z,997.17
2023-04-16T10:47:12.149Z,997.12
2023-04-16T10:48:12.133Z,997.17
2023-04-16T10:49:12.169Z,997.12
2023-04-16T10:50:12.122Z,997.16
2023-04-16T10:51:12.116Z,997.23
2023-04-16T10:52:12.138Z,997.15
2023-04-16T10:53:12.117Z,997.16
2023-04-16T10:54:12.110Z,997.20
2023-04-16T10:55:12.086Z,997.14
2023-04-16T10:56:12.123Z,997.17
2023-04-16T10:57:12.091Z,997.17
2023-04-16T10:58:12.072Z,997.18
2023-04-16T10:59:12.210Z,997.18
2023-04-16T11:00:12.066Z,997.13
2023-04-16T11:01:12.280Z,997.19
2023-04-16T11:02:12.118Z,997.16
2023-04-16T11:03:12.249Z,997.21
2023-04-16T11:04:12.154Z,997.22
2023-04-16T11:05:12.029Z,997.20
2023-04-16T11:06:12.021Z,997.18
2023-04-16T11:07:12.014Z,997.22
2023-04-16T11:08:12.014Z,997.16
2023-04-16T11:09:12.151Z,997.21
2023-04-16T11:10:12.026Z,997.20
2023-04-16T11:11:12.007Z,997.22
2023-04-16T11:12:11.998Z,997.26
2023-04-16T11:13:11.991Z,997.18
2023-04-16T11:14:11.986Z,997.17
2023-04-16T11:15:11.989Z,997.22
2023-04-16T11:16:12.026Z,997.17
2023-04-16T11:17:11.968Z,997.18
2023-04-16T11:18:11.954Z,997.20
2023-04-16T11:19:12.074Z,997.18
2023-04-16T11:20:19.338Z,997.24
2023-04-16T11:21:12.927Z,997.21
2023-04-16T11:22:11.947Z,997.22
2023-04-16T11:23:11.913Z,997.26
2023-04-16T11:24:11.917Z,997.24
2023-04-16T11:25:11.924Z,997.24
2023-04-16T11:26:11.894Z,997.20
2023-04-16T11:27:11.896Z,997.21
2023-04-16T11:28:11.895Z,997.20
2023-04-16T11:29:11.927Z,997.22
2023-04-16T11:30:11.880Z,997.22
2023-04-16T11:31:11.901Z,997.21
2023-04-16T11:32:11.862Z,997.22
2023-04-16T11:33:11.887Z,997.20
2023-04-16T11:34:11.853Z,997.18
2023-04-16T11:35:11.901Z,997.20
2023-04-16T11:36:11.838Z,997.20
2023-04-16T11:37:11.835Z,997.26
2023-04-16T11:38:11.926Z,997.16
2023-04-16T11:39:12.067Z,997.24
2023-04-16T11:40:11.823Z,997.22
2023-04-16T11:41:11.801Z,997.25
2023-04-16T11:42:11.808Z,997.25
2023-04-16T11:43:11.798Z,997.23
2023-04-16T11:44:11.793Z,997.27
2023-04-16T11:45:11.782Z,997.27
2023-04-16T11:46:26.275Z,997.28
2023-04-16T11:47:13.896Z,997.30
2023-04-16T11:48:11.817Z,997.31
2023-04-16T11:49:11.927Z,997.32
2023-04-16T11:50:11.749Z,997.29
2023-04-16T11:51:11.752Z,997.28
2023-04-16T11:52:11.751Z,997.34
2023-04-16T11:53:11.754Z,997.29
2023-04-16T11:54:12.290Z,997.30
2023-04-16T11:55:12.725Z,997.32
2023-04-16T11:56:11.725Z,997.27
2023-04-16T11:57:11.717Z,997.34
2023-04-16T11:58:11.707Z,997.31
2023-04-16T11:59:11.815Z,997.27
2023-04-16T12:00:11.689Z,997.41
2023-04-16T12:01:11.691Z,997.38
2023-04-16T12:02:11.755Z,997.38
2023-04-16T12:03:11.840Z,997.37
2023-04-16T12:04:11.949Z,997.43
2023-04-16T12:05:11.764Z,997.43
2023-04-16T12:06:11.644Z,997.45
2023-04-16T12:07:11.693Z,997.34
2023-04-16T12:08:11.664Z,997.43
2023-04-16T12:09:11.770Z,997.41
2023-04-16T12:10:11.622Z,997.41
2023-04-16T12:11:11.631Z,997.47
2023-04-16T12:12:11.633Z,997.43
2023-04-16T12:13:11.623Z,997.42
2023-04-16T12:14:11.608Z,997.45
2023-04-16T12:15:11.598Z,997.37
2023-04-16T12:16:11.634Z,997.40
2023-04-16T12:17:11.627Z,997.38
2023-04-16T12:18:11.672Z,997.40
2023-04-16T12:19:11.803Z,997.41
2023-04-16T12:20:11.617Z,997.38
2023-04-16T12:21:11.571Z,997.38
2023-04-16T12:22:11.566Z,997.38
2023-04-16T12:23:11.560Z,997.38
2023-04-16T12:24:12.542Z,997.43
2023-04-16T12:25:11.547Z,997.40
2023-04-16T12:26:11.534Z,997.41
2023-04-16T12:27:11.534Z,997.42
2023-04-16T12:28:11.533Z,997.42
2023-04-16T12:29:11.721Z,997.41